Terminal Aerodrome Forecast
Issued by NWS

Home | Current Version | Previous Version | Text Only | Print | Product List | Glossary On
Versions: 1 2 3 4 5 6 7 8 9 10 11 12 13 14 15 16 17 18 19 20 21 22 23
000
FTUS43 KAPX 040257 AAB
TAFAPN
TAF AMD
KAPN 040257Z 0403/0424 28014G22KT P6SM OVC025
     FM040400 27010G16KT P6SM SCT035
     FM040600 27010KT P6SM VCSH BKN035
     FM041400 29012G18KT P6SM SCT025 OVC035=

USA.gov is the U.S. government's official web portal to all federal, state and local government web resources and services.